createdAt,value
2018-05-15T00:00:20.550Z,62.47
2018-05-15T00:02:48.489Z,62.64
2018-05-15T00:05:17.023Z,63.27
2018-05-15T00:07:45.185Z,62.77
2018-05-15T00:10:13.131Z,63.53
2018-05-15T00:12:41.121Z,62.92
2018-05-15T00:15:09.153Z,63.14
2018-05-15T00:17:37.205Z,63.00
2018-05-15T00:20:05.236Z,63.48
2018-05-15T00:22:33.220Z,65.36
2018-05-15T00:25:01.172Z,66.04
2018-05-15T00:27:29.187Z,65.54
2018-05-15T00:29:57.203Z,65.26
2018-05-15T00:32:25.127Z,65.37
2018-05-15T00:34:53.149Z,65.45
2018-05-15T00:37:21.200Z,66.14
2018-05-15T00:39:49.152Z,65.86
2018-05-15T00:42:17.088Z,66.30
2018-05-15T00:44:45.026Z,66.64
2018-05-15T00:47:12.984Z,66.59
2018-05-15T00:49:40.912Z,67.21
2018-05-15T00:52:08.861Z,67.27
2018-05-15T00:54:36.815Z,67.55
2018-05-15T00:57:04.801Z,68.04
2018-05-15T00:59:32.730Z,68.00
2018-05-15T01:02:00.663Z,67.94
2018-05-15T01:04:29.418Z,68.69
2018-05-15T01:06:57.366Z,68.50
2018-05-15T01:09:25.404Z,69.07
2018-05-15T01:11:54.068Z,69.20
2018-05-15T01:14:22.182Z,69.24
2018-05-15T01:16:50.119Z,69.39
2018-05-15T01:19:18.063Z,69.94
2018-05-15T01:21:46.108Z,70.71
2018-05-15T01:24:14.121Z,70.59
2018-05-15T01:26:42.049Z,70.77
2018-05-15T01:29:10.020Z,71.35
2018-05-15T01:31:37.929Z,71.19
2018-05-15T01:34:06.033Z,71.41
2018-05-15T01:36:34.079Z,71.47
2018-05-15T01:39:02.387Z,71.67
2018-05-15T01:41:30.346Z,71.72
2018-05-15T01:43:58.364Z,72.14
2018-05-15T01:46:26.315Z,71.12
2018-05-15T01:48:54.491Z,71.45
2018-05-15T01:51:22.404Z,72.16
2018-05-15T01:53:50.335Z,72.09
2018-05-15T01:56:18.302Z,72.20
2018-05-15T01:58:46.240Z,73.27
2018-05-15T02:01:14.192Z,72.51
2018-05-15T02:03:42.120Z,72.12
2018-05-15T02:06:10.072Z,71.75
2018-05-15T02:08:38.057Z,71.95
2018-05-15T02:11:05.983Z,73.04
2018-05-15T02:13:33.918Z,72.69
2018-05-15T02:16:01.844Z,72.64
2018-05-15T02:18:29.762Z,72.58
2018-05-15T02:20:57.749Z,72.41
2018-05-15T02:23:25.706Z,72.24
2018-05-15T02:25:53.715Z,73.38
2018-05-15T02:28:21.657Z,74.13
2018-05-15T02:30:49.683Z,74.29
2018-05-15T02:33:17.853Z,74.76
2018-05-15T02:35:46.254Z,75.05
2018-05-15T02:38:14.183Z,75.34
2018-05-15T02:40:42.095Z,75.53
2018-05-15T02:43:10.470Z,74.95
2018-05-15T02:45:38.420Z,75.09
2018-05-15T02:48:06.491Z,75.83
2018-05-15T02:50:34.537Z,75.76
2018-05-15T02:53:02.428Z,76.24
2018-05-15T02:55:30.337Z,76.36
2018-05-15T02:57:58.347Z,76.11
2018-05-15T03:00:26.362Z,77.03
2018-05-15T03:02:54.513Z,76.82
2018-05-15T03:05:22.447Z,76.59
2018-05-15T03:07:50.368Z,76.24
2018-05-15T03:10:18.338Z,76.45
2018-05-15T03:12:46.255Z,77.53
2018-05-15T03:15:14.233Z,77.39
2018-05-15T03:17:42.222Z,77.80
2018-05-15T03:20:10.246Z,79.55
2018-05-15T03:22:38.283Z,78.20
2018-05-15T03:25:06.279Z,76.57
2018-05-15T03:27:34.272Z,75.73
2018-05-15T03:30:02.237Z,75.08
2018-05-15T03:32:30.402Z,75.07
2018-05-15T03:34:58.421Z,75.17
2018-05-15T03:37:26.349Z,75.09
2018-05-15T03:39:54.310Z,74.55
2018-05-15T03:42:22.265Z,74.43
2018-05-15T03:44:50.195Z,74.25
2018-05-15T03:47:18.127Z,74.88
2018-05-15T03:49:46.080Z,74.91
2018-05-15T03:52:13.999Z,75.70
2018-05-15T03:54:41.995Z,76.33
2018-05-15T03:57:09.941Z,75.79
2018-05-15T03:59:37.899Z,76.01
2018-05-15T04:02:17.577Z,76.38
2018-05-15T04:04:57.426Z,76.75
2018-05-15T04:07:37.216Z,76.34
2018-05-15T04:10:05.173Z,76.45
2018-05-15T04:12:33.215Z,75.94
2018-05-15T04:15:01.155Z,75.68
2018-05-15T04:17:29.154Z,76.11
2018-05-15T04:19:57.099Z,76.21
2018-05-15T04:22:25.062Z,75.89
2018-05-15T04:24:53.031Z,75.28
2018-05-15T04:27:20.987Z,75.24
2018-05-15T04:29:49.003Z,75.62
2018-05-15T04:32:16.972Z,75.69
2018-05-15T04:34:44.907Z,75.39
2018-05-15T04:37:12.925Z,75.69
2018-05-15T04:39:40.850Z,75.41
2018-05-15T04:42:08.809Z,75.34
2018-05-15T04:44:36.777Z,75.01
2018-05-15T04:47:04.858Z,75.34
2018-05-15T04:49:32.900Z,74.78
2018-05-15T04:52:00.825Z,74.87
2018-05-15T04:54:28.763Z,74.34
2018-05-15T04:56:56.904Z,74.38
2018-05-15T04:59:24.839Z,73.83
2018-05-15T05:01:52.783Z,73.93
2018-05-15T05:04:20.914Z,74.53
2018-05-15T05:06:48.983Z,75.20
2018-05-15T05:09:16.923Z,74.51
2018-05-15T05:11:44.952Z,75.79
2018-05-15T05:14:12.861Z,75.54
2018-05-15T05:16:40.824Z,74.95
2018-05-15T05:19:08.834Z,74.39
2018-05-15T05:21:36.772Z,74.14
2018-05-15T05:24:04.947Z,73.75
2018-05-15T05:26:32.865Z,73.15
2018-05-15T05:29:01.124Z,73.92
2018-05-15T05:31:29.114Z,74.15
2018-05-15T05:33:57.087Z,74.04
2018-05-15T05:36:25.094Z,73.57
2018-05-15T05:38:53.546Z,73.32
2018-05-15T05:41:21.709Z,73.33
2018-05-15T05:43:49.680Z,73.63
2018-05-15T05:46:17.685Z,73.18
2018-05-15T05:48:45.664Z,72.51
2018-05-15T05:51:13.669Z,72.18
2018-05-15T05:53:41.800Z,71.53
2018-05-15T05:56:09.738Z,71.45
2018-05-15T05:58:38.146Z,71.07
2018-05-15T06:01:06.214Z,70.77
2018-05-15T06:03:34.307Z,70.42
2018-05-15T06:06:02.260Z,69.87
2018-05-15T06:08:30.182Z,69.83
2018-05-15T06:10:58.122Z,68.78
2018-05-15T06:13:26.064Z,68.36
2018-05-15T06:15:54.092Z,67.46
2018-05-15T06:18:22.105Z,67.20
2018-05-15T06:20:50.176Z,67.32
2018-05-15T06:23:17.992Z,67.11
2018-05-15T06:25:45.911Z,66.80
2018-05-15T06:28:13.937Z,66.20
2018-05-15T06:30:41.903Z,66.49
2018-05-15T06:33:10.298Z,65.85
2018-05-15T06:35:38.227Z,65.72
2018-05-15T06:38:06.163Z,64.54
2018-05-15T06:40:34.145Z,63.12
2018-05-15T06:43:02.187Z,62.41
2018-05-15T06:45:30.159Z,59.61
2018-05-15T06:47:58.204Z,57.82
2018-05-15T06:50:26.198Z,58.20
2018-05-15T06:52:54.127Z,56.70
2018-05-15T06:55:22.055Z,55.97
2018-05-15T06:57:49.997Z,55.20
2018-05-15T07:00:17.982Z,54.70
2018-05-15T07:02:45.949Z,54.24
2018-05-15T07:05:13.897Z,53.98
2018-05-15T07:07:42.017Z,53.68
2018-05-15T07:10:09.903Z,53.94
2018-05-15T07:12:37.851Z,54.16
2018-05-15T07:15:05.841Z,53.86
2018-05-15T07:17:33.788Z,53.43
2018-05-15T07:20:01.728Z,52.66
2018-05-15T07:22:29.770Z,53.11
2018-05-15T07:24:57.744Z,52.43
2018-05-15T07:27:25.667Z,51.32
2018-05-15T07:29:53.608Z,50.81
2018-05-15T07:32:21.596Z,50.98
2018-05-15T07:34:49.534Z,50.61
2018-05-15T07:37:18.256Z,50.77
2018-05-15T07:39:46.185Z,50.53
2018-05-15T07:42:14.168Z,50.56
2018-05-15T07:44:42.158Z,49.15
2018-05-15T07:47:10.156Z,49.24
2018-05-15T07:49:38.108Z,49.37
2018-05-15T07:52:06.065Z,48.99
2018-05-15T07:54:33.999Z,49.22
2018-05-15T07:57:01.945Z,49.21
2018-05-15T07:59:29.887Z,48.72
2018-05-15T08:01:57.889Z,48.50
2018-05-15T08:04:25.880Z,47.66
2018-05-15T08:06:53.822Z,46.41
2018-05-15T08:09:21.752Z,46.42
2018-05-15T08:11:49.724Z,47.00
2018-05-15T08:14:17.660Z,46.86
2018-05-15T08:16:45.591Z,44.95
2018-05-15T08:19:13.523Z,44.45
2018-05-15T08:21:41.491Z,43.63
2018-05-15T08:24:09.426Z,44.13
2018-05-15T08:26:37.368Z,42.74
2018-05-15T08:29:05.320Z,41.60
2018-05-15T08:31:33.233Z,40.07
2018-05-15T08:34:01.165Z,38.92
2018-05-15T08:36:29.112Z,39.72
2018-05-15T08:38:57.168Z,37.41
2018-05-15T08:41:25.110Z,37.38
2018-05-15T08:43:53.161Z,37.10
2018-05-15T08:46:21.125Z,38.22
2018-05-15T08:48:49.068Z,38.23
2018-05-15T08:51:17.089Z,37.97
2018-05-15T08:53:45.032Z,34.53
2018-05-15T08:56:13.011Z,35.15
2018-05-15T08:58:40.937Z,35.34
2018-05-15T09:01:08.876Z,35.11
2018-05-15T09:03:36.825Z,35.98
2018-05-15T09:06:04.743Z,36.18
2018-05-15T09:08:32.676Z,35.75
2018-05-15T09:11:00.607Z,35.46
2018-05-15T09:13:28.541Z,34.35
2018-05-15T09:15:56.471Z,33.50
2018-05-15T09:18:24.421Z,33.74
2018-05-15T09:20:52.375Z,32.87
2018-05-15T09:23:20.306Z,32.68
2018-05-15T09:25:48.313Z,32.83
2018-05-15T09:28:16.240Z,33.38
2018-05-15T09:30:44.236Z,33.44
2018-05-15T09:33:12.148Z,33.61
2018-05-15T09:35:40.087Z,34.92
2018-05-15T09:38:08.015Z,33.18
2018-05-15T09:40:35.962Z,32.94
2018-05-15T09:43:03.906Z,31.73
2018-05-15T09:45:31.925Z,30.87
2018-05-15T09:47:59.848Z,30.64
2018-05-15T09:50:27.902Z,30.09
2018-05-15T09:52:55.810Z,29.16
2018-05-15T09:55:23.756Z,28.93
2018-05-15T09:57:51.733Z,28.82
2018-05-15T10:00:25.205Z,28.42
2018-05-15T10:02:53.329Z,28.19
2018-05-15T10:05:21.370Z,27.87
2018-05-15T10:07:49.327Z,28.42
2018-05-15T10:10:17.213Z,27.85
2018-05-15T10:12:45.145Z,26.53
2018-05-15T10:15:13.049Z,27.74
2018-05-15T10:17:40.983Z,27.45
2018-05-15T10:22:42.191Z,28.81
2018-05-15T10:25:10.139Z,27.56
2018-05-15T10:27:38.250Z,27.65
2018-05-15T10:30:06.176Z,28.62
2018-05-15T10:32:34.161Z,29.16
2018-05-15T10:35:02.195Z,29.68
2018-05-15T10:37:30.142Z,28.10
2018-05-15T10:39:58.064Z,27.74
2018-05-15T10:42:26.102Z,27.14
2018-05-15T10:44:54.425Z,27.26
2018-05-15T10:47:22.346Z,27.13
2018-05-15T10:49:50.458Z,27.68
2018-05-15T10:52:18.392Z,27.77
2018-05-15T10:54:46.315Z,28.10
2018-05-15T10:57:14.287Z,26.98
2018-05-15T10:59:42.254Z,27.13
2018-05-15T11:02:10.204Z,27.68
2018-05-15T11:04:38.263Z,28.10
2018-05-15T11:07:06.228Z,29.03
2018-05-15T11:09:34.105Z,29.84
2018-05-15T11:12:02.072Z,29.16
2018-05-15T11:14:30.028Z,28.33
2018-05-15T11:16:58.100Z,29.10
2018-05-15T11:19:37.782Z,29.58
2018-05-15T11:22:17.443Z,29.87
2018-05-15T11:24:52.052Z,30.17
2018-05-15T11:27:20.015Z,29.46
2018-05-15T11:29:48.191Z,30.43
2018-05-15T11:32:16.120Z,31.22
2018-05-15T11:34:44.034Z,30.75
2018-05-15T11:37:11.963Z,31.16
2018-05-15T11:39:39.889Z,31.28
2018-05-15T11:42:07.844Z,31.86
2018-05-15T11:44:35.800Z,31.27
2018-05-15T11:47:03.712Z,32.06
2018-05-15T11:49:32.568Z,31.92
2018-05-15T11:52:00.610Z,31.91
2018-05-15T11:54:27.621Z,32.89
2018-05-15T11:56:55.558Z,34.15
2018-05-15T11:59:23.510Z,33.36
2018-05-15T12:01:51.472Z,33.14
2018-05-15T12:04:19.436Z,34.34
2018-05-15T12:06:47.365Z,35.47
2018-05-15T12:09:15.326Z,33.25
2018-05-15T12:11:43.254Z,34.67
2018-05-15T12:14:11.210Z,35.12
2018-05-15T12:16:39.138Z,35.10
2018-05-15T12:19:07.061Z,35.97
2018-05-15T12:21:34.981Z,36.72
2018-05-15T12:24:02.985Z,36.24
2018-05-15T12:26:30.929Z,37.16
2018-05-15T12:28:58.880Z,37.46
2018-05-15T12:31:26.816Z,37.43
2018-05-15T12:33:54.766Z,37.57
2018-05-15T12:36:22.817Z,36.59
2018-05-15T12:38:50.757Z,36.85
2018-05-15T12:41:18.826Z,36.21
2018-05-15T12:43:46.678Z,36.38
2018-05-15T12:46:14.664Z,36.59
2018-05-15T12:48:42.616Z,36.53
2018-05-15T12:51:10.543Z,37.59
2018-05-15T12:53:38.471Z,38.37
2018-05-15T12:56:06.546Z,38.11
2018-05-15T12:58:34.491Z,38.49
2018-05-15T13:01:02.461Z,38.71
2018-05-15T13:03:30.413Z,39.39
2018-05-15T13:05:58.442Z,38.66
2018-05-15T13:08:26.448Z,39.52
2018-05-15T13:10:54.408Z,38.82
2018-05-15T13:13:22.324Z,40.20
2018-05-15T13:15:50.308Z,39.75
2018-05-15T13:18:18.373Z,39.33
2018-05-15T13:20:46.281Z,40.00
2018-05-15T13:23:14.331Z,40.29
2018-05-15T13:25:42.285Z,40.26
2018-05-15T13:28:10.228Z,40.93
2018-05-15T13:30:38.237Z,41.87
2018-05-15T13:33:06.223Z,41.45
2018-05-15T13:35:34.201Z,41.79
2018-05-15T13:38:02.224Z,41.68
2018-05-15T13:40:30.171Z,41.61
2018-05-15T13:42:58.128Z,41.97
2018-05-15T13:45:26.067Z,42.29
2018-05-15T13:47:54.030Z,41.34
2018-05-15T13:50:21.984Z,40.27
2018-05-15T13:52:49.921Z,39.45
2018-05-15T13:55:17.836Z,39.38
2018-05-15T13:57:45.763Z,38.75
2018-05-15T14:00:13.754Z,37.82
2018-05-15T14:02:41.710Z,37.19
2018-05-15T14:05:09.639Z,36.64
2018-05-15T14:07:37.706Z,36.54
2018-05-15T14:10:05.636Z,37.27
2018-05-15T14:12:33.596Z,37.23
2018-05-15T14:15:01.520Z,37.10
2018-05-15T14:17:29.457Z,36.89
2018-05-15T14:19:57.430Z,37.01
2018-05-15T14:22:25.395Z,37.91
2018-05-15T14:24:53.386Z,37.51
2018-05-15T14:27:21.386Z,37.63
2018-05-15T14:29:49.343Z,37.14
2018-05-15T14:32:17.271Z,38.13
2018-05-15T14:34:45.288Z,38.07
2018-05-15T14:37:13.253Z,37.86
2018-05-15T14:39:41.225Z,37.76
2018-05-15T14:45:15.153Z,37.36
2018-05-15T14:47:43.529Z,36.83
2018-05-15T14:50:11.503Z,36.25
2018-05-15T14:52:39.430Z,37.01
2018-05-15T14:55:07.397Z,37.27
2018-05-15T14:57:35.316Z,36.46
2018-05-15T15:00:03.259Z,36.24
2018-05-15T15:02:31.301Z,35.95
2018-05-15T15:04:59.270Z,36.22
2018-05-15T15:07:27.184Z,35.97
2018-05-15T15:09:55.127Z,36.33
2018-05-15T15:12:23.074Z,35.68
2018-05-15T15:14:50.995Z,35.79
2018-05-15T15:17:19.104Z,36.23
2018-05-15T15:19:46.959Z,37.03
2018-05-15T15:22:14.896Z,36.49
2018-05-15T15:24:43.009Z,37.51
2018-05-15T15:27:10.950Z,37.98
2018-05-15T15:29:38.893Z,38.40
2018-05-15T15:32:06.822Z,39.08
2018-05-15T15:34:34.840Z,38.67
2018-05-15T15:37:02.826Z,38.41
2018-05-15T15:39:30.748Z,38.51
2018-05-15T15:41:58.718Z,38.43
2018-05-15T15:44:26.672Z,38.75
2018-05-15T15:46:54.635Z,38.00
2018-05-15T15:49:22.595Z,37.98
2018-05-15T15:51:50.561Z,37.75
2018-05-15T15:54:18.486Z,37.19
2018-05-15T15:56:46.559Z,37.06
2018-05-15T15:59:14.618Z,37.09
2018-05-15T16:01:42.568Z,37.19
2018-05-15T16:04:10.592Z,37.82
2018-05-15T16:06:38.452Z,37.33
2018-05-15T16:09:06.386Z,37.27
2018-05-15T16:11:34.379Z,39.40
2018-05-15T16:14:02.348Z,40.48
2018-05-15T16:16:30.520Z,41.54
2018-05-15T16:18:58.507Z,42.11
2018-05-15T16:21:26.444Z,43.03
2018-05-15T16:23:54.363Z,44.29
2018-05-15T16:26:22.356Z,44.79
2018-05-15T16:28:50.410Z,46.28
2018-05-15T16:31:19.040Z,46.80
2018-05-15T16:33:47.177Z,47.50
2018-05-15T16:36:15.142Z,46.36
2018-05-15T16:38:43.068Z,46.73
2018-05-15T16:41:11.018Z,47.12
2018-05-15T16:43:39.019Z,46.71
2018-05-15T16:46:06.957Z,46.67
2018-05-15T16:48:34.904Z,47.25
2018-05-15T16:51:02.856Z,47.92
2018-05-15T16:53:30.802Z,48.30
2018-05-15T16:55:58.894Z,49.24
2018-05-15T16:58:26.859Z,50.07
2018-05-15T17:00:54.771Z,50.51
2018-05-15T17:03:22.716Z,51.05
2018-05-15T17:05:50.662Z,51.27
2018-05-15T17:08:18.871Z,51.51
2018-05-15T17:10:46.936Z,51.89
2018-05-15T17:13:15.208Z,52.33
2018-05-15T17:15:43.348Z,52.87
2018-05-15T17:18:11.281Z,53.26
2018-05-15T17:20:39.284Z,52.82
2018-05-15T17:23:07.224Z,52.80
2018-05-15T17:25:35.957Z,52.65
2018-05-15T17:28:03.942Z,53.37
2018-05-15T17:30:31.837Z,53.66
2018-05-15T17:32:59.829Z,53.80
2018-05-15T17:35:27.753Z,54.38
2018-05-15T17:37:55.752Z,54.73
2018-05-15T17:40:23.691Z,55.10
2018-05-15T17:42:51.612Z,55.19
2018-05-15T17:45:19.568Z,54.68
2018-05-15T17:47:47.508Z,55.07
2018-05-15T17:50:15.448Z,55.29
2018-05-15T17:55:18.075Z,55.50
2018-05-15T17:57:46.029Z,55.24
2018-05-15T18:00:13.975Z,55.41
2018-05-15T18:02:41.944Z,55.66
2018-05-15T18:05:09.876Z,55.29
2018-05-15T18:07:37.952Z,55.44
2018-05-15T18:10:05.878Z,55.75
2018-05-15T18:12:33.822Z,55.96
2018-05-15T18:15:02.580Z,56.55
2018-05-15T18:17:30.521Z,56.42
2018-05-15T18:19:58.515Z,56.55
2018-05-15T18:22:26.494Z,56.92
2018-05-15T18:24:54.437Z,57.25
2018-05-15T18:27:22.591Z,57.26
2018-05-15T18:29:50.539Z,56.99
2018-05-15T18:32:18.481Z,57.71
2018-05-15T18:34:46.434Z,57.66
2018-05-15T18:37:15.280Z,58.13
2018-05-15T18:39:43.213Z,58.35
2018-05-15T18:42:11.154Z,57.92
2018-05-15T18:44:39.072Z,58.56
2018-05-15T18:47:06.996Z,58.56
2018-05-15T18:49:34.938Z,58.75
2018-05-15T18:52:02.912Z,58.98
2018-05-15T18:54:30.813Z,59.61
2018-05-15T18:56:58.840Z,59.28
2018-05-15T18:59:26.753Z,59.55
2018-05-15T19:01:54.715Z,60.36
2018-05-15T19:04:22.676Z,60.15
2018-05-15T19:06:50.740Z,61.15
2018-05-15T19:09:18.657Z,61.84
2018-05-15T19:11:46.600Z,61.96
2018-05-15T19:14:14.574Z,61.76
2018-05-15T19:16:42.685Z,62.25
2018-05-15T19:19:11.173Z,62.05
2018-05-15T19:21:39.057Z,63.25
2018-05-15T19:24:06.974Z,63.68
2018-05-15T19:26:34.921Z,64.00
2018-05-15T19:29:02.875Z,63.85
2018-05-15T19:31:36.368Z,64.33
2018-05-15T19:34:09.885Z,64.12
2018-05-15T19:36:43.549Z,65.34
2018-05-15T19:39:11.564Z,65.29
2018-05-15T19:41:39.529Z,65.85
2018-05-15T19:44:07.493Z,65.88
2018-05-15T19:46:35.387Z,66.49
2018-05-15T19:49:03.383Z,66.49
2018-05-15T19:51:31.368Z,66.90
2018-05-15T19:53:59.320Z,66.89
2018-05-15T19:56:27.286Z,67.26
2018-05-15T19:58:55.237Z,67.71
2018-05-15T20:01:23.216Z,67.78
2018-05-15T20:03:51.236Z,68.00
2018-05-15T20:06:19.186Z,67.81
2018-05-15T20:08:47.172Z,68.25
2018-05-15T20:11:15.121Z,68.37
2018-05-15T20:13:43.814Z,68.10
2018-05-15T20:16:11.792Z,67.96
2018-05-15T20:18:39.731Z,67.83
2018-05-15T20:21:07.673Z,67.96
2018-05-15T20:23:35.692Z,67.43
2018-05-15T20:26:03.720Z,67.96
2018-05-15T20:28:31.749Z,67.56
2018-05-15T20:30:59.845Z,67.59
2018-05-15T20:33:27.920Z,68.38
2018-05-15T20:35:55.825Z,68.26
2018-05-15T20:38:23.812Z,67.72
2018-05-15T20:40:51.728Z,68.61
2018-05-15T20:43:19.699Z,69.45
2018-05-15T20:45:47.642Z,70.18
2018-05-15T20:48:15.747Z,70.52
2018-05-15T20:50:43.678Z,70.53
2018-05-15T20:53:11.806Z,70.59
2018-05-15T20:55:39.885Z,70.71
2018-05-15T20:58:07.987Z,71.42
2018-05-15T21:00:36.013Z,72.12
2018-05-15T21:03:03.951Z,72.84
2018-05-15T21:05:32.002Z,73.25
2018-05-15T21:08:00.033Z,73.28
2018-05-15T21:10:28.064Z,72.27
2018-05-15T21:12:56.071Z,72.73
2018-05-15T21:15:24.001Z,73.03
2018-05-15T21:17:51.915Z,72.98
2018-05-15T21:20:19.876Z,73.31
2018-05-15T21:22:48.109Z,73.44
2018-05-15T21:25:16.140Z,73.76
2018-05-15T21:27:44.052Z,73.82
2018-05-15T21:30:11.996Z,74.46
2018-05-15T21:32:39.957Z,74.51
2018-05-15T21:35:07.928Z,74.78
2018-05-15T21:37:36.587Z,75.07
2018-05-15T21:40:04.552Z,75.37
2018-05-15T21:42:32.563Z,75.28
2018-05-15T21:45:00.494Z,75.21
2018-05-15T21:47:28.507Z,75.05
2018-05-15T21:49:56.456Z,74.92
2018-05-15T21:52:25.853Z,75.21
2018-05-15T21:54:54.136Z,74.53
2018-05-15T21:57:22.135Z,74.60
2018-05-15T21:59:50.064Z,74.61
2018-05-15T22:02:18.021Z,74.41
2018-05-15T22:04:46.079Z,74.24
2018-05-15T22:07:14.124Z,74.11
2018-05-15T22:09:42.121Z,74.43
2018-05-15T22:12:21.842Z,74.47
2018-05-15T22:15:01.684Z,74.35
2018-05-15T22:17:41.392Z,73.77
2018-05-15T22:20:21.227Z,74.06
2018-05-15T22:22:48.682Z,73.88
2018-05-15T22:25:17.164Z,73.82
2018-05-15T22:27:45.159Z,73.59
2018-05-15T22:30:13.176Z,72.96
2018-05-15T22:32:41.240Z,72.35
2018-05-15T22:35:09.339Z,72.83
2018-05-15T22:37:37.316Z,72.87
2018-05-15T22:40:05.256Z,72.90
2018-05-15T22:42:33.541Z,72.73
2018-05-15T22:45:01.488Z,72.70
2018-05-15T22:47:29.421Z,72.71
2018-05-15T22:49:57.449Z,72.38
2018-05-15T22:52:25.392Z,72.65
2018-05-15T22:54:53.353Z,72.31
2018-05-15T22:57:21.306Z,72.37
2018-05-15T22:59:49.288Z,72.41
2018-05-15T23:02:17.240Z,73.02
2018-05-15T23:04:45.284Z,74.08
2018-05-15T23:07:13.233Z,74.01
2018-05-15T23:09:41.609Z,75.22
2018-05-15T23:12:09.583Z,75.73
2018-05-15T23:14:37.576Z,75.80
2018-05-15T23:17:05.524Z,75.87
2018-05-15T23:19:33.478Z,76.24
2018-05-15T23:22:01.479Z,76.77
2018-05-15T23:24:29.415Z,76.54
2018-05-15T23:26:57.457Z,77.48
2018-05-15T23:29:25.402Z,77.54
2018-05-15T23:31:53.343Z,77.88
2018-05-15T23:34:21.305Z,77.59
2018-05-15T23:36:49.304Z,77.74
2018-05-15T23:39:17.331Z,77.59
2018-05-15T23:41:45.317Z,77.15
2018-05-15T23:44:13.288Z,76.70
2018-05-15T23:46:41.254Z,76.95
2018-05-15T23:49:09.173Z,76.71
2018-05-15T23:51:37.287Z,76.52
2018-05-15T23:54:05.358Z,76.87
2018-05-15T23:56:33.346Z,76.91
2018-05-15T23:59:01.296Z,76.57
